Ankara, Turkey

4:00 AM EET on December 19, 2014 (GMT +0200)
Esenboga | Change Station
CLOSE
Current Station
Airport
Location: Ankara,
Elevation: 3114 ft
Nearby Weather Stations

Elev 3114 ft 40.13 °N, 33.00 °E | Updated 10 minutes ago

Mostly Cloudy
Mostly Cloudy
37 °F
Feels Like 35 °F
N
4
Wind Variable Wind from NNW

Today
High -- | Low -- °F
--% Chance of Precip.
Yesterday
High -- | Low -- °F
Precip. -- in
7:05 AM 4:24 PM
Waning Crescent, 11% visible
Pressure 30.09 in
Visibility 1.6 miles
Clouds Few 800 ft
Scattered Clouds 3000 ft
Mostly Cloudy 8000 ft
Windchill 35 °F
Dew Point 37 °F
Humidity 100%
Rainfall 0.00 in
Snow Depth Not available.
UV 0 out of 12
Pollen Not available.
Air Quality Not available.
Flu Activity Not available.
METAR LTAC 190150Z 33003KT 2500 BR FEW008 SCT030 BKN080 03/03 Q1019 TEMPO TL0300 1200 BCFG BKN008 BKN035

More Conditions Fewer Conditions

Pressure 30.09 in
Visibility 1.6 miles
Clouds Few 800 ft
Scattered Clouds 3000 ft
Mostly Cloudy 8000 ft
Windchill 35 °F
Dew Point 37 °F
Humidity 100%
Rainfall 0.00 in
Snow Depth Not available.
UV 0 out of 12
Pollen Not available.
Air Quality Not available.
Flu Activity Not available.
METAR LTAC 190150Z 33003KT 2500 BR FEW008 SCT030 BKN080 03/03 Q1019 TEMPO TL0300 1200 BCFG BKN008 BKN035

More Conditions Fewer Conditions

10-Day Weather Forecast

Almanac

Astronomy

Dec. 19, 2014 Rise Set
Actual Time
Civil Twilight
Nautical Twilight
Astronomical Twilight
Moon
Length of Visible Light
Length of Day
Tomorrow will be .
, % of the Moon is Illuminated

Today's Extremes

Country Highs Country Lows

Community

WunderPhotos

Upload Photos

1,779,036 photos uploaded!

WunderBlogs® & News

Nearby

Air Quality

  Air Quality AQ Index Pollutant
Not available.

Snow Depth

Station Depth Elevation

Earthquake Activity

City Distance Mag. Time & Date
Minimum magnitude displayed is 2.5.

Coastal Water Temperatures

Place Temperature

Nearby Weather Stations